sensor_id;sensor_type;location;lat;lon;timestamp;temperature;humidity
76787;DHT22;65739;51.482;5.702;2022-12-16T00:01:29;-2.90;99.90
76787;DHT22;65739;51.482;5.702;2022-12-16T00:03:55;-2.90;99.90
76787;DHT22;65739;51.482;5.702;2022-12-16T00:06:24;-2.80;99.90
76787;DHT22;65739;51.482;5.702;2022-12-16T00:08:50;-2.80;99.90
76787;DHT22;65739;51.482;5.702;2022-12-16T00:11:16;-2.70;99.90
76787;DHT22;65739;51.482;5.702;2022-12-16T00:13:41;-2.70;99.90
76787;DHT22;65739;51.482;5.702;2022-12-16T00:16:10;-2.60;99.90
76787;DHT22;65739;51.482;5.702;2022-12-16T00:18:36;-2.60;99.90
76787;DHT22;65739;51.482;5.702;2022-12-16T00:21:02;-2.60;99.90
76787;DHT22;65739;51.482;5.702;2022-12-16T00:23:28;-2.60;99.90
76787;DHT22;65739;51.482;5.702;2022-12-16T00:25:55;-2.50;99.90
76787;DHT22;65739;51.482;5.702;2022-12-16T00:28:21;-2.50;99.90
76787;DHT22;65739;51.482;5.702;2022-12-16T00:30:49;-2.40;99.90
76787;DHT22;65739;51.482;5.702;2022-12-16T00:33:15;-2.40;99.90
76787;DHT22;65739;51.482;5.702;2022-12-16T00:35:41;-2.40;99.90
76787;DHT22;65739;51.482;5.702;2022-12-16T00:38:07;-2.40;99.90
76787;DHT22;65739;51.482;5.702;2022-12-16T00:40:33;-2.30;99.90
76787;DHT22;65739;51.482;5.702;2022-12-16T00:42:59;-2.30;99.90
76787;DHT22;65739;51.482;5.702;2022-12-16T00:45:25;-2.30;99.90
76787;DHT22;65739;51.482;5.702;2022-12-16T00:47:51;-2.20;99.90
76787;DHT22;65739;51.482;5.702;2022-12-16T00:50:17;-2.20;99.90
76787;DHT22;65739;51.482;5.702;2022-12-16T00:52:43;-2.20;99.90
76787;DHT22;65739;51.482;5.702;2022-12-16T00:55:09;-2.20;99.90
76787;DHT22;65739;51.482;5.702;2022-12-16T00:57:36;-2.10;99.90
76787;DHT22;65739;51.482;5.702;2022-12-16T01:00:02;-2.10;99.90
76787;DHT22;65739;51.482;5.702;2022-12-16T01:02:30;-2.10;99.90
76787;DHT22;65739;51.482;5.702;2022-12-16T01:04:56;-2.00;99.90
76787;DHT22;65739;51.482;5.702;2022-12-16T01:07:22;-2.00;99.90
76787;DHT22;65739;51.482;5.702;2022-12-16T01:09:47;-1.90;99.90
76787;DHT22;65739;51.482;5.702;2022-12-16T01:12:13;-1.90;99.90
76787;DHT22;65739;51.482;5.702;2022-12-16T01:14:39;-1.90;99.90
76787;DHT22;65739;51.482;5.702;2022-12-16T01:17:05;-1.90;99.90
76787;DHT22;65739;51.482;5.702;2022-12-16T01:19:30;-1.90;99.90
76787;DHT22;65739;51.482;5.702;2022-12-16T01:21:56;-1.90;99.90
76787;DHT22;65739;51.482;5.702;2022-12-16T01:24:22;-1.90;99.90
76787;DHT22;65739;51.482;5.702;2022-12-16T01:26:48;-1.90;99.90
76787;DHT22;65739;51.482;5.702;2022-12-16T01:29:13;-1.80;99.90
76787;DHT22;65739;51.482;5.702;2022-12-16T01:31:39;-1.80;99.90
76787;DHT22;65739;51.482;5.702;2022-12-16T01:34:05;-1.80;99.90
76787;DHT22;65739;51.482;5.702;2022-12-16T01:36:31;-1.80;99.90
76787;DHT22;65739;51.482;5.702;2022-12-16T01:38:57;-1.80;99.90
76787;DHT22;65739;51.482;5.702;2022-12-16T01:41:22;-1.60;99.90
76787;DHT22;65739;51.482;5.702;2022-12-16T01:43:48;-1.70;99.90
76787;DHT22;65739;51.482;5.702;2022-12-16T01:46:15;-1.70;99.90
76787;DHT22;65739;51.482;5.702;2022-12-16T01:51:36;-1.70;99.90
76787;DHT22;65739;51.482;5.702;2022-12-16T01:56:38;-1.60;99.90
76787;DHT22;65739;51.482;5.702;2022-12-16T01:59:05;-1.60;99.90
76787;DHT22;65739;51.482;5.702;2022-12-16T02:01:31;-1.60;99.90
76787;DHT22;65739;51.482;5.702;2022-12-16T02:03:57;-1.60;99.90
76787;DHT22;65739;51.482;5.702;2022-12-16T02:06:27;-1.40;99.90
76787;DHT22;65739;51.482;5.702;2022-12-16T02:08:56;-1.50;99.90
76787;DHT22;65739;51.482;5.702;2022-12-16T02:14:36;-1.50;99.90
76787;DHT22;65739;51.482;5.702;2022-12-16T02:17:13;-1.50;99.90
76787;DHT22;65739;51.482;5.702;2022-12-16T02:20:21;-1.50;99.90
76787;DHT22;65739;51.482;5.702;2022-12-16T02:28:33;-1.50;99.90
76787;DHT22;65739;51.482;5.702;2022-12-16T02:31:09;-1.40;99.90
76787;DHT22;65739;51.482;5.702;2022-12-16T02:33:44;-1.40;99.90
76787;DHT22;65739;51.482;5.702;2022-12-16T02:39:22;-1.40;99.90
76787;DHT22;65739;51.482;5.702;2022-12-16T02:45:03;-1.30;99.90
76787;DHT22;65739;51.482;5.702;2022-12-16T02:47:31;-1.30;99.90
76787;DHT22;65739;51.482;5.702;2022-12-16T02:49:57;-1.30;99.90
76787;DHT22;65739;51.482;5.702;2022-12-16T02:52:29;-1.30;99.90
76787;DHT22;65739;51.482;5.702;2022-12-16T02:55:02;-1.30;99.90
76787;DHT22;65739;51.482;5.702;2022-12-16T02:57:49;-1.30;99.90
76787;DHT22;65739;51.482;5.702;2022-12-16T03:00:21;-1.30;99.90
76787;DHT22;65739;51.482;5.702;2022-12-16T03:03:11;-1.40;99.90
76787;DHT22;65739;51.482;5.702;2022-12-16T03:05:45;-1.40;99.90
76787;DHT22;65739;51.482;5.702;2022-12-16T03:08:35;-1.40;99.90
76787;DHT22;65739;51.482;5.702;2022-12-16T03:11:04;-1.40;99.90
76787;DHT22;65739;51.482;5.702;2022-12-16T03:13:43;-1.40;99.90
76787;DHT22;65739;51.482;5.702;2022-12-16T03:16:13;-1.40;99.90
76787;DHT22;65739;51.482;5.702;2022-12-16T03:18:43;-1.40;99.90
76787;DHT22;65739;51.482;5.702;2022-12-16T03:21:11;-1.40;99.90
76787;DHT22;65739;51.482;5.702;2022-12-16T03:23:55;-1.50;99.90
76787;DHT22;65739;51.482;5.702;2022-12-16T03:26:45;-1.40;99.90
76787;DHT22;65739;51.482;5.702;2022-12-16T03:32:06;-1.40;99.90
76787;DHT22;65739;51.482;5.702;2022-12-16T03:34:50;-1.30;99.90
76787;DHT22;65739;51.482;5.702;2022-12-16T03:37:17;-1.30;99.90
76787;DHT22;65739;51.482;5.702;2022-12-16T03:39:51;-1.30;99.90
76787;DHT22;65739;51.482;5.702;2022-12-16T03:42:18;-1.30;99.90
76787;DHT22;65739;51.482;5.702;2022-12-16T03:44:44;-1.40;99.90
76787;DHT22;65739;51.482;5.702;2022-12-16T03:47:18;-1.40;99.90
76787;DHT22;65739;51.482;5.702;2022-12-16T03:49:44;-1.40;99.90
76787;DHT22;65739;51.482;5.702;2022-12-16T03:52:10;-1.40;99.90
76787;DHT22;65739;51.482;5.702;2022-12-16T03:54:36;-1.30;99.90
76787;DHT22;65739;51.482;5.702;2022-12-16T03:57:02;-1.30;99.90
76787;DHT22;65739;51.482;5.702;2022-12-16T03:59:31;-1.40;99.90
76787;DHT22;65739;51.482;5.702;2022-12-16T04:02:04;-1.30;99.90
76787;DHT22;65739;51.482;5.702;2022-12-16T04:04:34;-1.40;99.90
76787;DHT22;65739;51.482;5.702;2022-12-16T04:09:31;-1.40;99.90
76787;DHT22;65739;51.482;5.702;2022-12-16T04:12:11;-1.40;99.90
76787;DHT22;65739;51.482;5.702;2022-12-16T04:15:05;-1.40;99.90
76787;DHT22;65739;51.482;5.702;2022-12-16T04:17:53;-1.40;99.90
76787;DHT22;65739;51.482;5.702;2022-12-16T04:21:02;-1.40;99.90
76787;DHT22;65739;51.482;5.702;2022-12-16T04:23:55;-1.50;99.90
76787;DHT22;65739;51.482;5.702;2022-12-16T04:30:05;-1.40;99.90
76787;DHT22;65739;51.482;5.702;2022-12-16T04:36:46;-1.50;99.90
76787;DHT22;65739;51.482;5.702;2022-12-16T04:39:41;-1.50;99.90
76787;DHT22;65739;51.482;5.702;2022-12-16T04:42:47;-1.50;99.90
76787;DHT22;65739;51.482;5.702;2022-12-16T04:45:56;-1.50;99.90
76787;DHT22;65739;51.482;5.702;2022-12-16T04:49:00;-1.40;99.90
76787;DHT22;65739;51.482;5.702;2022-12-16T04:51:45;-1.40;99.90
76787;DHT22;65739;51.482;5.702;2022-12-16T04:58:02;-1.40;99.90
76787;DHT22;65739;51.482;5.702;2022-12-16T05:00:56;-1.30;99.90
76787;DHT22;65739;51.482;5.702;2022-12-16T05:04:08;-1.30;99.90
76787;DHT22;65739;51.482;5.702;2022-12-16T05:06:57;-1.30;99.90
76787;DHT22;65739;51.482;5.702;2022-12-16T05:10:06;-1.30;99.90
76787;DHT22;65739;51.482;5.702;2022-12-16T05:13:03;-1.20;99.90
76787;DHT22;65739;51.482;5.702;2022-12-16T05:16:10;-1.20;99.90
76787;DHT22;65739;51.482;5.702;2022-12-16T05:19:00;-1.20;99.90
76787;DHT22;65739;51.482;5.702;2022-12-16T05:21:54;-1.20;99.90
76787;DHT22;65739;51.482;5.702;2022-12-16T05:24:39;-1.20;99.90
76787;DHT22;65739;51.482;5.702;2022-12-16T05:27:30;-1.20;99.90
76787;DHT22;65739;51.482;5.702;2022-12-16T05:33:36;-1.10;99.90
76787;DHT22;65739;51.482;5.702;2022-12-16T05:36:33;-1.10;99.90
76787;DHT22;65739;51.482;5.702;2022-12-16T05:39:30;-1.10;99.90
76787;DHT22;65739;51.482;5.702;2022-12-16T05:42:32;-1.10;99.90
76787;DHT22;65739;51.482;5.702;2022-12-16T05:45:21;-1.10;99.90
76787;DHT22;65739;51.482;5.702;2022-12-16T05:48:32;-1.10;99.90
76787;DHT22;65739;51.482;5.702;2022-12-16T05:51:16;-1.10;99.90
76787;DHT22;65739;51.482;5.702;2022-12-16T05:54:12;-1.10;99.90
76787;DHT22;65739;51.482;5.702;2022-12-16T05:57:09;-1.10;99.90
76787;DHT22;65739;51.482;5.702;2022-12-16T05:59:57;-1.10;99.90
76787;DHT22;65739;51.482;5.702;2022-12-16T06:02:41;-1.10;99.90
76787;DHT22;65739;51.482;5.702;2022-12-16T06:05:38;-1.10;99.90
76787;DHT22;65739;51.482;5.702;2022-12-16T06:08:32;-1.00;99.90
76787;DHT22;65739;51.482;5.702;2022-12-16T06:14:51;-1.00;99.90
76787;DHT22;65739;51.482;5.702;2022-12-16T06:17:47;-1.00;99.90
76787;DHT22;65739;51.482;5.702;2022-12-16T06:20:36;-1.00;99.90
76787;DHT22;65739;51.482;5.702;2022-12-16T06:23:24;-1.00;99.90
76787;DHT22;65739;51.482;5.702;2022-12-16T06:26:08;-1.00;99.90
76787;DHT22;65739;51.482;5.702;2022-12-16T06:29:19;-0.90;99.90
76787;DHT22;65739;51.482;5.702;2022-12-16T06:32:23;-0.90;99.90
76787;DHT22;65739;51.482;5.702;2022-12-16T06:35:10;-0.90;99.90
76787;DHT22;65739;51.482;5.702;2022-12-16T06:38:01;-0.90;99.90
76787;DHT22;65739;51.482;5.702;2022-12-16T06:40:49;-0.90;99.90
76787;DHT22;65739;51.482;5.702;2022-12-16T06:43:55;-0.90;99.90
76787;DHT22;65739;51.482;5.702;2022-12-16T06:49:35;-0.90;99.90
76787;DHT22;65739;51.482;5.702;2022-12-16T06:55:48;-0.80;99.90
76787;DHT22;65739;51.482;5.702;2022-12-16T06:58:44;-0.80;99.90
76787;DHT22;65739;51.482;5.702;2022-12-16T07:01:46;-0.80;99.90
76787;DHT22;65739;51.482;5.702;2022-12-16T07:05:02;-0.80;99.90
76787;DHT22;65739;51.482;5.702;2022-12-16T07:08:06;-0.80;99.90
76787;DHT22;65739;51.482;5.702;2022-12-16T07:10:51;-0.80;99.90
76787;DHT22;65739;51.482;5.702;2022-12-16T07:13:41;-0.80;99.90
76787;DHT22;65739;51.482;5.702;2022-12-16T07:16:36;-0.80;99.90
76787;DHT22;65739;51.482;5.702;2022-12-16T07:19:30;-0.70;99.90
76787;DHT22;65739;51.482;5.702;2022-12-16T07:25:40;-0.80;99.90
76787;DHT22;65739;51.482;5.702;2022-12-16T07:28:42;-0.70;99.90
76787;DHT22;65739;51.482;5.702;2022-12-16T07:31:31;-0.70;99.90
76787;DHT22;65739;51.482;5.702;2022-12-16T07:34:19;-0.60;99.90
76787;DHT22;65739;51.482;5.702;2022-12-16T07:37:26;-0.60;99.90
76787;DHT22;65739;51.482;5.702;2022-12-16T07:40:46;-0.60;99.90
76787;DHT22;65739;51.482;5.702;2022-12-16T07:43:40;-0.60;99.90
76787;DHT22;65739;51.482;5.702;2022-12-16T07:52:27;-0.50;99.90
76787;DHT22;65739;51.482;5.702;2022-12-16T07:55:26;-0.50;99.90
76787;DHT22;65739;51.482;5.702;2022-12-16T07:58:17;-0.40;99.90
76787;DHT22;65739;51.482;5.702;2022-12-16T08:01:07;-0.50;99.90
76787;DHT22;65739;51.482;5.702;2022-12-16T08:04:10;-0.40;99.90
76787;DHT22;65739;51.482;5.702;2022-12-16T08:06:58;-0.40;99.90
76787;DHT22;65739;51.482;5.702;2022-12-16T08:09:55;-0.40;99.90
76787;DHT22;65739;51.482;5.702;2022-12-16T08:12:45;-0.30;99.90
76787;DHT22;65739;51.482;5.702;2022-12-16T08:15:29;-0.30;99.90
76787;DHT22;65739;51.482;5.702;2022-12-16T08:18:23;-0.30;99.90
76787;DHT22;65739;51.482;5.702;2022-12-16T08:21:23;-0.30;99.90
76787;DHT22;65739;51.482;5.702;2022-12-16T08:24:18;-0.20;99.90
76787;DHT22;65739;51.482;5.702;2022-12-16T08:27:05;-0.20;99.90
76787;DHT22;65739;51.482;5.702;2022-12-16T08:29:59;-0.20;99.90
76787;DHT22;65739;51.482;5.702;2022-12-16T08:33:08;-0.10;99.90
76787;DHT22;65739;51.482;5.702;2022-12-16T08:36:00;-0.10;99.90
76787;DHT22;65739;51.482;5.702;2022-12-16T08:38:56;0.00;99.90
76787;DHT22;65739;51.482;5.702;2022-12-16T08:41:55;0.00;99.90
76787;DHT22;65739;51.482;5.702;2022-12-16T08:44:56;0.10;99.90
76787;DHT22;65739;51.482;5.702;2022-12-16T08:47:43;0.10;99.90
76787;DHT22;65739;51.482;5.702;2022-12-16T08:50:31;0.10;99.90
76787;DHT22;65739;51.482;5.702;2022-12-16T08:59:46;0.20;99.90
76787;DHT22;65739;51.482;5.702;2022-12-16T09:02:43;0.20;99.90
76787;DHT22;65739;51.482;5.702;2022-12-16T09:05:37;0.20;99.90
76787;DHT22;65739;51.482;5.702;2022-12-16T09:08:32;0.20;99.90
76787;DHT22;65739;51.482;5.702;2022-12-16T09:11:25;0.20;99.90
76787;DHT22;65739;51.482;5.702;2022-12-16T09:14:09;0.10;99.90
76787;DHT22;65739;51.482;5.702;2022-12-16T09:20:50;0.20;99.90
76787;DHT22;65739;51.482;5.702;2022-12-16T09:23:44;0.30;99.90
76787;DHT22;65739;51.482;5.702;2022-12-16T09:27:30;0.30;99.90
76787;DHT22;65739;51.482;5.702;2022-12-16T09:30:27;0.20;99.90
76787;DHT22;65739;51.482;5.702;2022-12-16T09:33:18;0.10;99.90
76787;DHT22;65739;51.482;5.702;2022-12-16T09:36:15;0.10;99.90
76787;DHT22;65739;51.482;5.702;2022-12-16T09:38:59;0.10;99.90
76787;DHT22;65739;51.482;5.702;2022-12-16T09:41:52;0.10;99.90
76787;DHT22;65739;51.482;5.702;2022-12-16T09:45:18;0.20;99.90
76787;DHT22;65739;51.482;5.702;2022-12-16T09:48:45;0.30;99.90
76787;DHT22;65739;51.482;5.702;2022-12-16T09:51:31;0.30;99.90
76787;DHT22;65739;51.482;5.702;2022-12-16T09:54:18;0.40;99.90
76787;DHT22;65739;51.482;5.702;2022-12-16T09:57:07;0.50;99.90
76787;DHT22;65739;51.482;5.702;2022-12-16T10:03:37;0.40;99.90
76787;DHT22;65739;51.482;5.702;2022-12-16T10:13:33;0.40;99.90
76787;DHT22;65739;51.482;5.702;2022-12-16T10:16:56;0.50;99.90
76787;DHT22;65739;51.482;5.702;2022-12-16T10:27:05;0.90;99.90
76787;DHT22;65739;51.482;5.702;2022-12-16T10:30:02;0.90;99.90
76787;DHT22;65739;51.482;5.702;2022-12-16T10:32:57;1.00;99.90
76787;DHT22;65739;51.482;5.702;2022-12-16T10:35:51;0.90;99.90
76787;DHT22;65739;51.482;5.702;2022-12-16T10:42:02;1.00;99.90
76787;DHT22;65739;51.482;5.702;2022-12-16T10:45:23;1.10;99.90
76787;DHT22;65739;51.482;5.702;2022-12-16T10:48:43;1.10;99.90
76787;DHT22;65739;51.482;5.702;2022-12-16T10:51:37;1.10;99.90
76787;DHT22;65739;51.482;5.702;2022-12-16T10:59:07;1.10;99.90
76787;DHT22;65739;51.482;5.702;2022-12-16T11:01:34;1.10;99.90
76787;DHT22;65739;51.482;5.702;2022-12-16T11:05:34;1.10;99.90
76787;DHT22;65739;51.482;5.702;2022-12-16T11:08:36;1.20;99.90
76787;DHT22;65739;51.482;5.702;2022-12-16T11:11:33;1.00;99.90
76787;DHT22;65739;51.482;5.702;2022-12-16T11:14:33;1.00;99.90
76787;DHT22;65739;51.482;5.702;2022-12-16T11:17:36;1.10;99.90
76787;DHT22;65739;51.482;5.702;2022-12-16T11:20:34;1.00;99.90
76787;DHT22;65739;51.482;5.702;2022-12-16T11:23:28;0.80;99.90
76787;DHT22;65739;51.482;5.702;2022-12-16T11:26:30;0.80;99.90
76787;DHT22;65739;51.482;5.702;2022-12-16T11:29:24;0.70;99.90
76787;DHT22;65739;51.482;5.702;2022-12-16T11:32:23;0.70;99.90
76787;DHT22;65739;51.482;5.702;2022-12-16T11:35:37;0.70;99.90
76787;DHT22;65739;51.482;5.702;2022-12-16T11:38:47;0.70;99.90
76787;DHT22;65739;51.482;5.702;2022-12-16T11:41:58;0.70;99.90
76787;DHT22;65739;51.482;5.702;2022-12-16T11:45:02;0.90;99.90
76787;DHT22;65739;51.482;5.702;2022-12-16T11:51:24;1.10;99.90
76787;DHT22;65739;51.482;5.702;2022-12-16T11:54:24;1.40;99.90
76787;DHT22;65739;51.482;5.702;2022-12-16T11:57:26;1.60;99.90
76787;DHT22;65739;51.482;5.702;2022-12-16T12:00:15;1.70;99.90
76787;DHT22;65739;51.482;5.702;2022-12-16T12:03:15;1.90;99.90
76787;DHT22;65739;51.482;5.702;2022-12-16T12:06:14;2.00;99.90
76787;DHT22;65739;51.482;5.702;2022-12-16T12:09:09;1.70;99.90
76787;DHT22;65739;51.482;5.702;2022-12-16T12:12:08;1.60;99.90
76787;DHT22;65739;51.482;5.702;2022-12-16T12:30:06;3.00;99.90
76787;DHT22;65739;51.482;5.702;2022-12-16T12:39:28;3.50;99.90
76787;DHT22;65739;51.482;5.702;2022-12-16T12:45:17;3.60;99.90
76787;DHT22;65739;51.482;5.702;2022-12-16T12:48:19;3.50;99.90
76787;DHT22;65739;51.482;5.702;2022-12-16T12:51:10;3.70;99.90
76787;DHT22;65739;51.482;5.702;2022-12-16T12:54:28;4.00;99.90
76787;DHT22;65739;51.482;5.702;2022-12-16T12:57:14;4.10;99.90
76787;DHT22;65739;51.482;5.702;2022-12-16T13:00:18;4.10;99.90
76787;DHT22;65739;51.482;5.702;2022-12-16T13:06:20;4.20;99.90
76787;DHT22;65739;51.482;5.702;2022-12-16T13:15:05;3.50;99.90
76787;DHT22;65739;51.482;5.702;2022-12-16T13:20:50;3.00;99.90
76787;DHT22;65739;51.482;5.702;2022-12-16T13:23:44;3.00;99.90
76787;DHT22;65739;51.482;5.702;2022-12-16T13:26:33;2.90;99.90
76787;DHT22;65739;51.482;5.702;2022-12-16T13:29:30;2.90;99.90
76787;DHT22;65739;51.482;5.702;2022-12-16T13:32:23;3.00;99.90
76787;DHT22;65739;51.482;5.702;2022-12-16T13:43:48;2.90;99.90
76787;DHT22;65739;51.482;5.702;2022-12-16T13:46:45;2.80;99.90
76787;DHT22;65739;51.482;5.702;2022-12-16T13:55:27;2.50;99.90
76787;DHT22;65739;51.482;5.702;2022-12-16T13:58:25;2.50;99.90
76787;DHT22;65739;51.482;5.702;2022-12-16T14:01:17;2.40;99.90
76787;DHT22;65739;51.482;5.702;2022-12-16T14:04:02;2.30;99.90
76787;DHT22;65739;51.482;5.702;2022-12-16T14:06:51;2.20;99.90
76787;DHT22;65739;51.482;5.702;2022-12-16T14:09:40;2.10;99.90
76787;DHT22;65739;51.482;5.702;2022-12-16T14:13:00;2.10;99.90
76787;DHT22;65739;51.482;5.702;2022-12-16T14:25:21;2.00;99.90
76787;DHT22;65739;51.482;5.702;2022-12-16T14:34:30;1.90;99.90
76787;DHT22;65739;51.482;5.702;2022-12-16T14:37:32;1.90;99.90
76787;DHT22;65739;51.482;5.702;2022-12-16T14:40:31;1.80;99.90
76787;DHT22;65739;51.482;5.702;2022-12-16T14:43:21;1.80;99.90
76787;DHT22;65739;51.482;5.702;2022-12-16T14:46:17;1.80;99.90
76787;DHT22;65739;51.482;5.702;2022-12-16T14:49:23;1.70;99.90
76787;DHT22;65739;51.482;5.702;2022-12-16T14:52:26;1.70;99.90
76787;DHT22;65739;51.482;5.702;2022-12-16T14:55:19;1.60;99.90
76787;DHT22;65739;51.482;5.702;2022-12-16T14:58:16;1.60;99.90
76787;DHT22;65739;51.482;5.702;2022-12-16T15:01:13;1.50;99.90
76787;DHT22;65739;51.482;5.702;2022-12-16T15:03:59;1.50;99.90
76787;DHT22;65739;51.482;5.702;2022-12-16T15:06:47;1.50;99.90
76787;DHT22;65739;51.482;5.702;2022-12-16T15:09:41;1.40;99.90
76787;DHT22;65739;51.482;5.702;2022-12-16T15:12:39;1.40;99.90
76787;DHT22;65739;51.482;5.702;2022-12-16T15:15:31;1.40;99.90
76787;DHT22;65739;51.482;5.702;2022-12-16T15:18:21;1.40;99.90
76787;DHT22;65739;51.482;5.702;2022-12-16T15:21:12;1.40;99.90
76787;DHT22;65739;51.482;5.702;2022-12-16T15:23:56;1.40;99.90
76787;DHT22;65739;51.482;5.702;2022-12-16T15:26:42;1.30;99.90
76787;DHT22;65739;51.482;5.702;2022-12-16T15:29:37;1.30;99.90
76787;DHT22;65739;51.482;5.702;2022-12-16T15:32:35;1.30;99.90
76787;DHT22;65739;51.482;5.702;2022-12-16T15:38:26;1.30;99.90
76787;DHT22;65739;51.482;5.702;2022-12-16T15:41:25;1.20;99.90
76787;DHT22;65739;51.482;5.702;2022-12-16T15:44:26;1.20;99.90
76787;DHT22;65739;51.482;5.702;2022-12-16T15:47:34;1.10;99.90
76787;DHT22;65739;51.482;5.702;2022-12-16T15:50:25;1.20;99.90
76787;DHT22;65739;51.482;5.702;2022-12-16T15:53:31;1.10;99.90
76787;DHT22;65739;51.482;5.702;2022-12-16T15:56:24;1.30;99.90
76787;DHT22;65739;51.482;5.702;2022-12-16T15:59:35;1.40;99.90
76787;DHT22;65739;51.482;5.702;2022-12-16T16:02:29;1.50;99.90
76787;DHT22;65739;51.482;5.702;2022-12-16T16:05:23;1.50;99.90
76787;DHT22;65739;51.482;5.702;2022-12-16T16:08:11;1.50;99.90
76787;DHT22;65739;51.482;5.702;2022-12-16T16:11:01;1.60;99.90
76787;DHT22;65739;51.482;5.702;2022-12-16T16:13:46;1.70;99.90
76787;DHT22;65739;51.482;5.702;2022-12-16T16:16:30;1.70;99.90
76787;DHT22;65739;51.482;5.702;2022-12-16T16:19:24;1.60;99.90
76787;DHT22;65739;51.482;5.702;2022-12-16T16:22:36;1.50;99.90
76787;DHT22;65739;51.482;5.702;2022-12-16T16:25:20;1.40;99.90
76787;DHT22;65739;51.482;5.702;2022-12-16T16:28:08;1.30;99.90
76787;DHT22;65739;51.482;5.702;2022-12-16T16:30:52;1.30;99.90
76787;DHT22;65739;51.482;5.702;2022-12-16T16:33:36;1.20;99.90
76787;DHT22;65739;51.482;5.702;2022-12-16T16:36:20;1.20;99.90
76787;DHT22;65739;51.482;5.702;2022-12-16T16:39:04;1.20;99.90
76787;DHT22;65739;51.482;5.702;2022-12-16T16:41:51;1.20;99.90
76787;DHT22;65739;51.482;5.702;2022-12-16T16:44:35;1.20;99.90
76787;DHT22;65739;51.482;5.702;2022-12-16T16:47:20;1.20;99.90
76787;DHT22;65739;51.482;5.702;2022-12-16T16:50:05;1.20;99.90
76787;DHT22;65739;51.482;5.702;2022-12-16T16:52:49;1.20;99.90
76787;DHT22;65739;51.482;5.702;2022-12-16T16:55:36;1.20;99.90
76787;DHT22;65739;51.482;5.702;2022-12-16T16:58:25;1.20;99.90
76787;DHT22;65739;51.482;5.702;2022-12-16T17:01:15;1.20;99.90
76787;DHT22;65739;51.482;5.702;2022-12-16T17:04:00;1.10;99.90
76787;DHT22;65739;51.482;5.702;2022-12-16T17:06:45;1.20;99.90
76787;DHT22;65739;51.482;5.702;2022-12-16T17:09:32;1.10;99.90
76787;DHT22;65739;51.482;5.702;2022-12-16T17:12:26;1.10;99.90
76787;DHT22;65739;51.482;5.702;2022-12-16T17:15:24;1.10;99.90
76787;DHT22;65739;51.482;5.702;2022-12-16T17:18:09;1.10;99.90
76787;DHT22;65739;51.482;5.702;2022-12-16T17:21:15;1.00;99.90
76787;DHT22;65739;51.482;5.702;2022-12-16T17:24:09;1.00;99.90
76787;DHT22;65739;51.482;5.702;2022-12-16T17:27:17;1.00;99.90
76787;DHT22;65739;51.482;5.702;2022-12-16T17:30:14;1.00;99.90
76787;DHT22;65739;51.482;5.702;2022-12-16T17:32:59;1.00;99.90
76787;DHT22;65739;51.482;5.702;2022-12-16T17:35:55;1.00;99.90
76787;DHT22;65739;51.482;5.702;2022-12-16T17:38:43;1.00;99.90
76787;DHT22;65739;51.482;5.702;2022-12-16T17:41:30;1.00;99.90
76787;DHT22;65739;51.482;5.702;2022-12-16T17:44:18;1.00;99.90
76787;DHT22;65739;51.482;5.702;2022-12-16T17:47:07;0.90;99.90
76787;DHT22;65739;51.482;5.702;2022-12-16T17:50:01;0.90;99.90
76787;DHT22;65739;51.482;5.702;2022-12-16T17:52:52;1.00;99.90
76787;DHT22;65739;51.482;5.702;2022-12-16T17:56:03;1.00;99.90
76787;DHT22;65739;51.482;5.702;2022-12-16T18:02:07;1.00;99.90
76787;DHT22;65739;51.482;5.702;2022-12-16T18:05:01;0.90;99.90
76787;DHT22;65739;51.482;5.702;2022-12-16T18:07:53;1.00;99.90
76787;DHT22;65739;51.482;5.702;2022-12-16T18:10:51;1.00;99.90
76787;DHT22;65739;51.482;5.702;2022-12-16T18:13:44;1.00;99.90
76787;DHT22;65739;51.482;5.702;2022-12-16T18:16:35;0.90;99.90
76787;DHT22;65739;51.482;5.702;2022-12-16T18:19:20;1.00;99.90
76787;DHT22;65739;51.482;5.702;2022-12-16T18:22:07;0.90;99.90
76787;DHT22;65739;51.482;5.702;2022-12-16T18:25:00;1.00;99.90
76787;DHT22;65739;51.482;5.702;2022-12-16T18:27:55;0.90;99.90
76787;DHT22;65739;51.482;5.702;2022-12-16T18:33:39;0.90;99.90
76787;DHT22;65739;51.482;5.702;2022-12-16T18:36:27;0.90;99.90
76787;DHT22;65739;51.482;5.702;2022-12-16T18:39:21;0.90;99.90
76787;DHT22;65739;51.482;5.702;2022-12-16T18:42:28;0.90;99.90
76787;DHT22;65739;51.482;5.702;2022-12-16T18:45:19;0.90;99.90
76787;DHT22;65739;51.482;5.702;2022-12-16T18:48:07;0.90;99.90
76787;DHT22;65739;51.482;5.702;2022-12-16T18:51:15;0.90;99.90
76787;DHT22;65739;51.482;5.702;2022-12-16T18:54:13;0.90;99.90
76787;DHT22;65739;51.482;5.702;2022-12-16T18:56:57;0.90;99.90
76787;DHT22;65739;51.482;5.702;2022-12-16T18:59:41;0.90;99.90
76787;DHT22;65739;51.482;5.702;2022-12-16T19:02:25;0.90;99.90
76787;DHT22;65739;51.482;5.702;2022-12-16T19:05:09;0.90;99.90
76787;DHT22;65739;51.482;5.702;2022-12-16T19:08:00;0.90;99.90
76787;DHT22;65739;51.482;5.702;2022-12-16T19:11:00;0.90;99.90
76787;DHT22;65739;51.482;5.702;2022-12-16T19:26:26;0.80;99.90
76787;DHT22;65739;51.482;5.702;2022-12-16T19:29:46;0.80;99.90
76787;DHT22;65739;51.482;5.702;2022-12-16T19:38:59;0.80;99.90
76787;DHT22;65739;51.482;5.702;2022-12-16T19:41:46;0.80;99.90
76787;DHT22;65739;51.482;5.702;2022-12-16T19:44:35;0.80;99.90
76787;DHT22;65739;51.482;5.702;2022-12-16T19:47:38;0.80;99.90
76787;DHT22;65739;51.482;5.702;2022-12-16T19:50:48;0.80;99.90
76787;DHT22;65739;51.482;5.702;2022-12-16T19:53:50;0.80;99.90
76787;DHT22;65739;51.482;5.702;2022-12-16T19:56:46;0.80;99.90
76787;DHT22;65739;51.482;5.702;2022-12-16T20:06:04;0.80;99.90
76787;DHT22;65739;51.482;5.702;2022-12-16T20:12:18;0.80;99.90
76787;DHT22;65739;51.482;5.702;2022-12-16T20:15:06;0.80;99.90
76787;DHT22;65739;51.482;5.702;2022-12-16T20:18:22;0.80;99.90
76787;DHT22;65739;51.482;5.702;2022-12-16T20:21:10;0.80;99.90
76787;DHT22;65739;51.482;5.702;2022-12-16T20:24:03;0.80;99.90
76787;DHT22;65739;51.482;5.702;2022-12-16T20:33:14;0.80;99.90
76787;DHT22;65739;51.482;5.702;2022-12-16T20:36:05;0.70;99.90
76787;DHT22;65739;51.482;5.702;2022-12-16T20:38:56;0.80;99.90
76787;DHT22;65739;51.482;5.702;2022-12-16T20:44:55;0.80;99.90
76787;DHT22;65739;51.482;5.702;2022-12-16T20:51:09;0.70;99.90
76787;DHT22;65739;51.482;5.702;2022-12-16T20:53:55;0.80;99.90
76787;DHT22;65739;51.482;5.702;2022-12-16T21:00:16;0.70;99.90
76787;DHT22;65739;51.482;5.702;2022-12-16T21:03:04;0.70;99.90
76787;DHT22;65739;51.482;5.702;2022-12-16T21:09:29;0.70;99.90
76787;DHT22;65739;51.482;5.702;2022-12-16T21:12:39;0.70;99.90
76787;DHT22;65739;51.482;5.702;2022-12-16T21:15:30;0.70;99.90
76787;DHT22;65739;51.482;5.702;2022-12-16T21:18:15;0.70;99.90
76787;DHT22;65739;51.482;5.702;2022-12-16T21:20:59;0.70;99.90
76787;DHT22;65739;51.482;5.702;2022-12-16T21:23:43;0.70;99.90
76787;DHT22;65739;51.482;5.702;2022-12-16T21:26:36;0.70;99.90
76787;DHT22;65739;51.482;5.702;2022-12-16T21:29:21;0.60;99.90
76787;DHT22;65739;51.482;5.702;2022-12-16T21:32:05;0.60;99.90
76787;DHT22;65739;51.482;5.702;2022-12-16T21:34:49;0.60;99.90
76787;DHT22;65739;51.482;5.702;2022-12-16T21:37:33;0.60;99.90
76787;DHT22;65739;51.482;5.702;2022-12-16T21:40:17;0.60;99.90